createdAt,value
2022-08-26T00:00:20.359Z,3.53
2022-08-26T00:02:48.750Z,3.33
2022-08-26T00:05:17.378Z,3.28
2022-08-26T00:07:47.826Z,3.15
2022-08-26T00:10:17.442Z,3.90
2022-08-26T00:12:45.924Z,3.70
2022-08-26T00:15:16.725Z,3.53
2022-08-26T00:17:45.213Z,3.67
2022-08-26T00:20:20.372Z,3.40
2022-08-26T00:22:50.182Z,3.70
2022-08-26T00:25:19.415Z,3.50
2022-08-26T00:27:48.000Z,3.65
2022-08-26T00:30:22.750Z,3.90
2022-08-26T00:32:52.529Z,3.58
2022-08-26T00:35:22.318Z,3.58
2022-08-26T00:37:53.006Z,3.65
2022-08-26T00:40:24.475Z,3.50
2022-08-26T00:42:53.276Z,3.70
2022-08-26T00:45:22.646Z,3.58
2022-08-26T00:47:55.083Z,3.38
2022-08-26T00:50:27.598Z,3.60
2022-08-26T00:53:00.092Z,3.70
2022-08-26T00:55:38.235Z,4.13
2022-08-26T00:58:07.747Z,3.40
2022-08-26T01:00:36.411Z,3.92
2022-08-26T01:03:05.526Z,4.07
2022-08-26T01:05:36.586Z,3.67
2022-08-26T01:08:06.560Z,4.22
2022-08-26T01:10:35.104Z,3.65
2022-08-26T01:13:09.968Z,3.80
2022-08-26T01:15:43.385Z,3.40
2022-08-26T01:18:14.549Z,3.85
2022-08-26T01:20:57.532Z,3.65
2022-08-26T01:23:32.323Z,3.85
2022-08-26T01:26:06.137Z,3.53
2022-08-26T01:28:36.661Z,3.88
2022-08-26T01:31:08.856Z,4.20
2022-08-26T01:33:44.515Z,3.90
2022-08-26T01:36:13.889Z,3.60
2022-08-26T01:38:44.162Z,3.90
2022-08-26T01:41:19.717Z,4.20
2022-08-26T01:43:57.936Z,3.67
2022-08-26T01:46:29.320Z,3.97
2022-08-26T01:49:00.954Z,4.32
2022-08-26T01:51:30.183Z,4.22
2022-08-26T01:53:59.969Z,3.78
2022-08-26T01:56:33.066Z,3.80
2022-08-26T01:59:06.761Z,3.88
2022-08-26T02:01:35.785Z,3.42
2022-08-26T02:04:17.528Z,3.72
2022-08-26T02:06:46.857Z,3.92
2022-08-26T02:09:18.137Z,4.20
2022-08-26T02:11:49.106Z,4.07
2022-08-26T02:14:22.470Z,3.80
2022-08-26T02:16:54.123Z,3.97
2022-08-26T02:19:27.707Z,4.38
2022-08-26T02:21:58.898Z,3.85
2022-08-26T02:24:32.114Z,4.15
2022-08-26T02:27:01.404Z,3.53
2022-08-26T02:29:33.840Z,4.28
2022-08-26T02:32:02.297Z,4.00
2022-08-26T02:34:32.933Z,4.20
2022-08-26T02:37:03.026Z,4.25
2022-08-26T02:39:35.265Z,4.38
2022-08-26T02:42:04.810Z,4.25
2022-08-26T02:44:34.086Z,4.00
2022-08-26T02:47:02.762Z,4.57
2022-08-26T02:49:31.356Z,4.47
2022-08-26T02:52:01.846Z,4.53
2022-08-26T02:54:30.480Z,4.57
2022-08-26T02:57:00.524Z,4.68
2022-08-26T02:59:29.214Z,4.28
2022-08-26T03:01:58.344Z,4.32
2022-08-26T03:04:26.706Z,4.70
2022-08-26T03:06:56.115Z,4.55
2022-08-26T03:09:24.745Z,4.30
2022-08-26T03:11:55.282Z,4.78
2022-08-26T03:14:25.601Z,4.47
2022-08-26T03:16:55.544Z,4.60
2022-08-26T03:19:25.462Z,4.65
2022-08-26T03:21:57.879Z,4.70
2022-08-26T03:24:27.241Z,5.32
2022-08-26T03:26:55.560Z,5.40
2022-08-26T03:29:43.097Z,5.05
2022-08-26T03:32:11.934Z,5.35
2022-08-26T03:34:40.522Z,5.38
2022-08-26T03:37:09.041Z,5.70
2022-08-26T03:39:38.026Z,5.30
2022-08-26T03:42:06.798Z,5.70
2022-08-26T03:44:42.083Z,5.55
2022-08-26T03:47:10.790Z,5.60
2022-08-26T03:49:39.182Z,5.75
2022-08-26T03:52:07.850Z,6.03
2022-08-26T03:54:36.218Z,6.25
2022-08-26T03:57:04.767Z,6.80
2022-08-26T03:59:33.666Z,5.65
2022-08-26T04:02:03.662Z,6.43
2022-08-26T04:04:40.226Z,6.03
2022-08-26T04:07:08.668Z,6.47
2022-08-26T04:09:37.180Z,7.25
2022-08-26T04:12:06.121Z,8.60
2022-08-26T04:14:35.574Z,6.70
2022-08-26T04:17:07.626Z,6.38
2022-08-26T04:19:35.966Z,6.80
2022-08-26T04:22:04.339Z,7.25
2022-08-26T04:24:32.908Z,7.97
2022-08-26T04:27:02.455Z,9.43
2022-08-26T04:29:30.934Z,11.13
2022-08-26T04:31:59.488Z,11.77
2022-08-26T04:34:30.077Z,15.38
2022-08-26T04:36:58.669Z,15.43
2022-08-26T04:39:27.995Z,15.32
2022-08-26T04:41:57.691Z,16.17
2022-08-26T04:44:28.411Z,16.50
2022-08-26T04:46:58.350Z,13.90
2022-08-26T04:49:27.501Z,14.57
2022-08-26T04:51:57.793Z,14.00
2022-08-26T04:54:26.306Z,13.75
2022-08-26T04:56:55.041Z,12.60
2022-08-26T04:59:23.583Z,13.95
2022-08-26T05:01:57.248Z,13.38
2022-08-26T05:04:25.987Z,12.27
2022-08-26T05:06:59.232Z,13.73
2022-08-26T05:09:32.209Z,13.18
2022-08-26T05:12:00.554Z,14.65
2022-08-26T05:14:29.045Z,13.38
2022-08-26T05:16:57.478Z,12.65
2022-08-26T05:19:27.987Z,11.63
2022-08-26T05:21:56.563Z,11.10
2022-08-26T05:24:25.309Z,13.13
2022-08-26T05:26:58.018Z,13.20
2022-08-26T05:29:28.375Z,12.65
2022-08-26T05:31:56.727Z,11.93
2022-08-26T05:34:30.343Z,14.63
2022-08-26T05:36:59.271Z,14.02
2022-08-26T05:39:27.631Z,13.70
2022-08-26T05:41:58.265Z,12.70
2022-08-26T05:44:26.730Z,11.30
2022-08-26T05:46:55.116Z,11.20
2022-08-26T05:49:26.256Z,13.35
2022-08-26T05:51:54.956Z,13.40
2022-08-26T05:54:23.350Z,12.50
2022-08-26T05:56:52.387Z,11.35
2022-08-26T05:59:24.023Z,9.73
2022-08-26T06:01:54.598Z,8.90
2022-08-26T06:04:26.771Z,9.98
2022-08-26T06:06:56.026Z,11.85
2022-08-26T06:09:24.811Z,9.63
2022-08-26T06:11:53.601Z,14.35
2022-08-26T06:14:23.783Z,11.70
2022-08-26T06:16:52.240Z,10.45
2022-08-26T06:19:21.681Z,11.93
2022-08-26T06:21:54.769Z,11.00
2022-08-26T06:24:40.961Z,10.60
2022-08-26T06:27:13.539Z,10.32
2022-08-26T06:29:43.554Z,13.40
2022-08-26T06:32:11.918Z,10.65
2022-08-26T06:34:40.379Z,13.45
2022-08-26T06:37:09.723Z,11.50
2022-08-26T06:39:41.146Z,14.40
2022-08-26T06:42:10.955Z,14.27
2022-08-26T06:44:41.639Z,12.02
2022-08-26T06:47:14.612Z,13.32
2022-08-26T06:49:44.298Z,13.60
2022-08-26T06:52:12.822Z,11.70
2022-08-26T06:54:43.127Z,11.93
2022-08-26T06:57:12.868Z,16.13
2022-08-26T06:59:43.015Z,12.82
2022-08-26T07:02:13.417Z,13.93
2022-08-26T07:04:44.406Z,13.15
2022-08-26T07:07:17.005Z,11.48
2022-08-26T07:09:45.846Z,14.45
2022-08-26T07:12:14.251Z,13.73
2022-08-26T07:14:43.853Z,14.23
2022-08-26T07:17:16.483Z,12.82
2022-08-26T07:19:46.264Z,11.45
2022-08-26T07:22:14.621Z,12.32
2022-08-26T07:24:43.419Z,12.85
2022-08-26T07:27:14.774Z,14.57
2022-08-26T07:29:44.759Z,14.05
2022-08-26T07:32:15.959Z,14.70
2022-08-26T07:34:46.250Z,14.77
2022-08-26T07:37:14.891Z,14.45
2022-08-26T07:39:44.277Z,14.73
2022-08-26T07:42:14.339Z,21.27
2022-08-26T07:44:43.857Z,20.48
2022-08-26T07:47:25.580Z,18.15
2022-08-26T07:49:58.027Z,17.50
2022-08-26T07:52:28.776Z,17.05
2022-08-26T07:54:58.560Z,17.38
2022-08-26T07:57:27.192Z,17.90
2022-08-26T07:59:56.769Z,18.13
2022-08-26T08:02:26.735Z,16.20
2022-08-26T08:04:57.865Z,15.02
2022-08-26T08:07:44.541Z,13.48
2022-08-26T08:10:16.547Z,12.85
2022-08-26T08:12:45.331Z,12.35
2022-08-26T08:15:15.380Z,11.32
2022-08-26T08:17:44.443Z,11.18
2022-08-26T08:20:15.770Z,12.63
2022-08-26T08:22:44.937Z,13.20
2022-08-26T08:25:13.880Z,12.57
2022-08-26T08:27:45.056Z,12.63
2022-08-26T08:30:14.494Z,12.45
2022-08-26T08:32:44.272Z,11.25
2022-08-26T08:35:16.914Z,10.85
2022-08-26T08:37:46.265Z,12.30
2022-08-26T08:40:18.299Z,11.55
2022-08-26T08:42:54.569Z,13.55
2022-08-26T08:45:33.353Z,12.65
2022-08-26T08:48:08.096Z,10.90
2022-08-26T08:50:45.788Z,12.25
2022-08-26T08:56:08.920Z,9.15
2022-08-26T08:58:51.415Z,8.65
2022-08-26T09:01:29.143Z,9.15
2022-08-26T09:04:17.237Z,7.63
2022-08-26T09:06:48.256Z,7.32
2022-08-26T09:09:23.496Z,6.32
2022-08-26T09:11:51.903Z,6.78
2022-08-26T09:14:20.308Z,6.78
2022-08-26T09:16:59.006Z,6.28
2022-08-26T09:19:36.096Z,7.25
2022-08-26T09:22:09.410Z,6.30
2022-08-26T09:24:41.516Z,5.68
2022-08-26T09:27:11.503Z,5.60
2022-08-26T09:29:45.416Z,7.78
2022-08-26T09:32:24.332Z,8.55
2022-08-26T09:37:36.541Z,7.35
2022-08-26T09:40:27.165Z,6.43
2022-08-26T09:43:22.227Z,6.50
2022-08-26T09:45:58.446Z,5.72
2022-08-26T09:48:31.994Z,6.85
2022-08-26T09:51:06.907Z,9.00
2022-08-26T09:53:51.899Z,8.15
2022-08-26T09:56:27.943Z,8.32
2022-08-26T09:58:57.677Z,9.52
2022-08-26T10:01:32.227Z,8.02
2022-08-26T10:04:07.982Z,7.03
2022-08-26T10:06:41.669Z,7.88
2022-08-26T10:09:14.841Z,8.13
2022-08-26T10:11:47.283Z,10.40
2022-08-26T10:14:24.285Z,14.00
2022-08-26T10:16:58.389Z,15.30
2022-08-26T10:19:41.796Z,14.98
2022-08-26T10:22:28.670Z,14.30
2022-08-26T10:25:03.009Z,16.23
2022-08-26T10:27:51.026Z,18.73
2022-08-26T10:30:23.347Z,18.02
2022-08-26T10:32:56.844Z,17.10
2022-08-26T10:35:26.979Z,15.40
2022-08-26T10:37:59.493Z,14.32
2022-08-26T10:40:45.877Z,14.82
2022-08-26T10:43:23.605Z,17.98
2022-08-26T10:45:58.555Z,18.92
2022-08-26T10:48:35.522Z,18.55
2022-08-26T10:51:05.663Z,18.20
2022-08-26T10:53:48.033Z,23.73
2022-08-26T10:56:30.717Z,20.52
2022-08-26T10:59:12.557Z,19.98
2022-08-26T11:01:52.581Z,17.25
2022-08-26T11:04:36.243Z,15.00
2022-08-26T11:07:39.263Z,12.80
2022-08-26T11:10:30.769Z,11.82
2022-08-26T11:13:03.517Z,11.27
2022-08-26T11:16:10.903Z,11.98
2022-08-26T11:18:51.460Z,11.95
2022-08-26T11:21:50.863Z,11.63
2022-08-26T11:24:45.816Z,11.40
2022-08-26T11:27:47.339Z,10.48
2022-08-26T11:30:39.980Z,10.00
2022-08-26T11:33:09.128Z,10.07
2022-08-26T11:35:50.041Z,9.27
2022-08-26T11:38:28.433Z,9.82
2022-08-26T11:41:04.145Z,11.27
2022-08-26T11:43:34.116Z,11.15
2022-08-26T11:46:06.861Z,13.35
2022-08-26T11:48:39.738Z,14.73
2022-08-26T11:51:10.327Z,13.85
2022-08-26T11:53:42.443Z,14.73
2022-08-26T11:56:13.624Z,14.32
2022-08-26T11:58:43.170Z,13.68
2022-08-26T12:01:31.264Z,14.95
2022-08-26T12:04:01.273Z,14.60
2022-08-26T12:06:35.455Z,12.65
2022-08-26T12:09:12.468Z,11.75
2022-08-26T12:11:41.268Z,11.10
2022-08-26T12:14:19.700Z,10.90
2022-08-26T12:16:49.771Z,11.10
2022-08-26T12:19:26.275Z,11.13
2022-08-26T12:22:01.948Z,9.48
2022-08-26T12:24:31.158Z,8.38
2022-08-26T12:27:15.346Z,9.45
2022-08-26T12:29:43.778Z,9.65
2022-08-26T12:32:19.295Z,9.70
2022-08-26T12:34:49.959Z,10.02
2022-08-26T12:37:19.084Z,10.50
2022-08-26T12:39:47.927Z,9.93
2022-08-26T12:42:42.143Z,9.77
2022-08-26T12:45:11.197Z,10.75
2022-08-26T12:47:44.201Z,10.70
2022-08-26T12:50:19.162Z,9.70
2022-08-26T12:52:57.247Z,11.57
2022-08-26T12:55:35.477Z,13.60
2022-08-26T12:58:26.051Z,12.70
2022-08-26T13:00:56.280Z,11.07
2022-08-26T13:03:43.152Z,10.80
2022-08-26T13:06:16.878Z,10.27
2022-08-26T13:08:46.034Z,8.77
2022-08-26T13:11:18.461Z,8.25
2022-08-26T13:13:48.141Z,7.63
2022-08-26T13:16:16.804Z,8.00
2022-08-26T13:18:48.745Z,7.45
2022-08-26T13:21:19.028Z,7.75
2022-08-26T13:23:47.985Z,6.85
2022-08-26T13:26:16.879Z,7.45
2022-08-26T13:28:45.338Z,7.05
2022-08-26T13:31:21.743Z,6.10
2022-08-26T13:33:57.838Z,6.30
2022-08-26T13:36:26.198Z,7.15
2022-08-26T13:38:54.585Z,6.80
2022-08-26T13:41:28.908Z,7.32
2022-08-26T13:44:00.215Z,7.00
2022-08-26T13:46:30.722Z,6.75
2022-08-26T13:49:00.949Z,4.85
2022-08-26T13:51:30.168Z,4.57
2022-08-26T13:53:59.388Z,4.88
2022-08-26T13:56:29.469Z,4.30
2022-08-26T13:58:58.264Z,3.97
2022-08-26T14:01:27.720Z,3.67
2022-08-26T14:03:56.261Z,3.67
2022-08-26T14:06:26.164Z,3.55
2022-08-26T14:08:54.655Z,3.20
2022-08-26T14:11:23.137Z,3.53
2022-08-26T14:13:51.580Z,2.85
2022-08-26T14:16:25.911Z,3.38
2022-08-26T14:18:55.046Z,3.92
2022-08-26T14:21:24.778Z,3.80
2022-08-26T14:23:58.981Z,3.92
2022-08-26T14:26:30.077Z,3.55
2022-08-26T14:28:59.622Z,3.15
2022-08-26T14:31:29.269Z,3.33
2022-08-26T14:33:59.471Z,3.05
2022-08-26T14:36:32.061Z,2.88
2022-08-26T14:39:04.898Z,3.00
2022-08-26T14:41:34.219Z,2.95
2022-08-26T14:44:05.369Z,2.67
2022-08-26T14:46:38.660Z,2.67
2022-08-26T14:49:10.397Z,3.20
2022-08-26T14:51:39.525Z,2.75
2022-08-26T14:54:13.019Z,2.63
2022-08-26T14:56:45.775Z,2.22
2022-08-26T14:59:15.979Z,2.28
2022-08-26T15:01:44.800Z,2.58
2022-08-26T15:04:13.234Z,2.80
2022-08-26T15:06:42.205Z,2.70
2022-08-26T15:09:12.826Z,2.67
2022-08-26T15:11:41.508Z,2.50
2022-08-26T15:14:14.805Z,2.85
2022-08-26T15:16:48.950Z,2.75
2022-08-26T15:19:18.038Z,2.20
2022-08-26T15:21:47.184Z,2.10
2022-08-26T15:24:21.956Z,2.35
2022-08-26T15:26:50.681Z,2.70
2022-08-26T15:29:19.571Z,2.40
2022-08-26T15:31:48.681Z,2.30
2022-08-26T15:34:17.453Z,2.40
2022-08-26T15:36:47.212Z,2.53
2022-08-26T15:39:18.218Z,2.55
2022-08-26T15:41:47.562Z,2.35
2022-08-26T15:44:17.245Z,2.10
2022-08-26T15:46:45.730Z,2.17
2022-08-26T15:49:17.690Z,2.47
2022-08-26T15:51:50.251Z,1.85
2022-08-26T15:54:22.542Z,2.13
2022-08-26T15:56:52.207Z,2.30
2022-08-26T15:59:22.043Z,2.15
2022-08-26T16:01:51.124Z,1.90
2022-08-26T16:04:20.101Z,2.00
2022-08-26T16:06:51.379Z,1.92
2022-08-26T16:09:24.222Z,1.65
2022-08-26T16:11:52.934Z,1.73
2022-08-26T16:14:21.484Z,2.17
2022-08-26T16:16:50.553Z,1.83
2022-08-26T16:19:19.123Z,1.60
2022-08-26T16:21:48.017Z,1.60
2022-08-26T16:24:16.426Z,1.52
2022-08-26T16:26:46.199Z,1.83
2022-08-26T16:29:17.566Z,1.88
2022-08-26T16:31:47.516Z,1.88
2022-08-26T16:34:15.877Z,1.80
2022-08-26T16:36:44.189Z,2.20
2022-08-26T16:39:13.178Z,1.90
2022-08-26T16:41:41.703Z,1.92
2022-08-26T16:44:11.936Z,2.08
2022-08-26T16:46:41.137Z,1.80
2022-08-26T16:49:09.619Z,2.10
2022-08-26T16:51:38.629Z,1.92
2022-08-26T16:54:08.756Z,2.10
2022-08-26T16:56:37.733Z,2.00
2022-08-26T16:59:07.795Z,1.80
2022-08-26T17:01:37.814Z,1.70
2022-08-26T17:04:06.364Z,2.30
2022-08-26T17:06:35.074Z,1.92
2022-08-26T17:09:03.469Z,1.92
2022-08-26T17:11:31.995Z,2.28
2022-08-26T17:14:00.442Z,1.60
2022-08-26T17:16:28.968Z,1.90
2022-08-26T17:19:00.100Z,1.60
2022-08-26T17:21:29.259Z,1.60
2022-08-26T17:23:57.723Z,1.70
2022-08-26T17:26:27.949Z,1.45
2022-08-26T17:28:56.389Z,1.50
2022-08-26T17:31:25.318Z,1.80
2022-08-26T17:33:54.830Z,1.70
2022-08-26T17:36:28.085Z,1.60
2022-08-26T17:38:57.943Z,1.88
2022-08-26T17:41:27.042Z,1.55
2022-08-26T17:43:55.933Z,1.77
2022-08-26T17:46:24.856Z,1.38
2022-08-26T17:48:53.298Z,1.80
2022-08-26T17:51:23.714Z,1.60
2022-08-26T17:53:54.098Z,1.80
2022-08-26T17:56:25.717Z,1.70
2022-08-26T17:58:56.493Z,1.60
2022-08-26T18:01:27.620Z,1.50
2022-08-26T18:04:00.303Z,1.65
2022-08-26T18:06:30.307Z,1.63
2022-08-26T18:09:00.816Z,1.70
2022-08-26T18:11:32.082Z,1.98
2022-08-26T18:14:01.360Z,1.42
2022-08-26T18:16:34.053Z,1.40
2022-08-26T18:19:02.489Z,1.70
2022-08-26T18:21:30.987Z,1.85
2022-08-26T18:24:00.891Z,1.70
2022-08-26T18:26:32.117Z,1.75
2022-08-26T18:29:01.791Z,1.55
2022-08-26T18:31:31.217Z,2.13
2022-08-26T18:34:01.175Z,1.88
2022-08-26T18:36:32.347Z,1.80
2022-08-26T18:39:02.863Z,1.80
2022-08-26T18:41:33.397Z,1.50
2022-08-26T18:44:01.863Z,1.60
2022-08-26T18:46:30.294Z,1.73
2022-08-26T18:48:59.168Z,1.65
2022-08-26T18:51:30.593Z,1.40
2022-08-26T18:54:02.361Z,1.48
2022-08-26T18:56:33.480Z,1.70
2022-08-26T18:59:02.578Z,1.40
2022-08-26T19:01:32.214Z,1.55
2022-08-26T19:04:03.017Z,1.60
2022-08-26T19:06:35.334Z,1.70
2022-08-26T19:09:05.575Z,1.58
2022-08-26T19:11:37.423Z,1.40
2022-08-26T19:14:14.517Z,1.70
2022-08-26T19:16:44.960Z,1.58
2022-08-26T19:19:14.014Z,1.65
2022-08-26T19:21:42.915Z,1.50
2022-08-26T19:24:15.594Z,1.58
2022-08-26T19:26:47.330Z,1.80
2022-08-26T19:31:49.759Z,1.70
2022-08-26T19:34:20.731Z,1.40
2022-08-26T19:36:49.694Z,1.50
2022-08-26T19:39:18.102Z,1.42
2022-08-26T19:41:47.835Z,1.60
2022-08-26T19:44:35.887Z,1.83
2022-08-26T19:47:05.064Z,1.67
2022-08-26T19:49:33.620Z,1.52
2022-08-26T19:52:02.964Z,1.40
2022-08-26T19:54:31.638Z,1.40
2022-08-26T19:57:01.532Z,1.40
2022-08-26T19:59:30.093Z,1.58
2022-08-26T20:02:00.683Z,1.42
2022-08-26T20:04:30.349Z,1.50
2022-08-26T20:07:00.521Z,1.73
2022-08-26T20:09:30.007Z,1.40
2022-08-26T20:11:58.806Z,1.20
2022-08-26T20:14:29.844Z,1.50
2022-08-26T20:16:58.300Z,1.30
2022-08-26T20:19:44.386Z,1.10
2022-08-26T20:22:13.721Z,1.38
2022-08-26T20:24:42.309Z,1.30
2022-08-26T20:27:10.703Z,1.27
2022-08-26T20:29:40.847Z,1.17
2022-08-26T20:32:09.792Z,1.50
2022-08-26T20:34:38.599Z,1.42
2022-08-26T20:37:09.071Z,1.50
2022-08-26T20:39:37.584Z,1.33
2022-08-26T20:42:06.596Z,1.38
2022-08-26T20:44:54.533Z,1.25
2022-08-26T20:47:23.573Z,1.30
2022-08-26T20:49:52.687Z,1.40
2022-08-26T20:52:21.522Z,1.52
2022-08-26T20:54:52.703Z,1.40
2022-08-26T20:57:22.210Z,1.73
2022-08-26T20:59:51.921Z,1.58
2022-08-26T21:02:20.278Z,1.33
2022-08-26T21:04:48.624Z,1.40
2022-08-26T21:07:17.039Z,1.33
2022-08-26T21:09:46.086Z,1.63
2022-08-26T21:12:14.491Z,1.50
2022-08-26T21:14:45.649Z,1.85
2022-08-26T21:17:17.544Z,1.70
2022-08-26T21:19:46.001Z,1.40
2022-08-26T21:22:14.512Z,1.88
2022-08-26T21:24:42.845Z,1.55
2022-08-26T21:27:11.134Z,1.95
2022-08-26T21:29:39.639Z,1.58
2022-08-26T21:32:07.990Z,1.50
2022-08-26T21:34:39.737Z,1.80
2022-08-26T21:37:08.968Z,1.90
2022-08-26T21:39:45.017Z,1.85
2022-08-26T21:42:13.654Z,1.40
2022-08-26T21:44:43.351Z,1.90
2022-08-26T21:47:14.803Z,1.75
2022-08-26T21:49:44.873Z,1.83
2022-08-26T21:52:13.327Z,1.63
2022-08-26T21:54:41.657Z,1.80
2022-08-26T21:57:18.248Z,1.70
2022-08-26T21:59:46.648Z,1.67
2022-08-26T22:02:15.618Z,1.60
2022-08-26T22:04:48.718Z,1.95
2022-08-26T22:07:18.991Z,1.70
2022-08-26T22:09:47.407Z,1.63
2022-08-26T22:12:18.218Z,1.60
2022-08-26T22:14:46.975Z,1.48
2022-08-26T22:17:15.856Z,1.58
2022-08-26T22:19:46.736Z,1.80
2022-08-26T22:22:16.494Z,1.83
2022-08-26T22:24:45.180Z,1.60
2022-08-26T22:27:14.567Z,1.98
2022-08-26T22:29:43.024Z,1.65
2022-08-26T22:32:11.487Z,1.95
2022-08-26T22:34:40.501Z,1.70
2022-08-26T22:37:10.291Z,1.80
2022-08-26T22:39:39.370Z,2.00
2022-08-26T22:42:07.763Z,1.80
2022-08-26T22:44:37.464Z,2.20
2022-08-26T22:47:06.045Z,1.77
2022-08-26T22:49:34.414Z,1.65
2022-08-26T22:52:03.007Z,1.75
2022-08-26T22:54:32.802Z,1.63
2022-08-26T22:57:01.622Z,1.70
2022-08-26T22:59:30.019Z,1.48
2022-08-26T23:01:58.394Z,1.63
2022-08-26T23:04:26.799Z,1.90
2022-08-26T23:06:55.158Z,1.70
2022-08-26T23:09:23.502Z,1.60
2022-08-26T23:11:55.907Z,1.60
2022-08-26T23:14:25.652Z,1.58
2022-08-26T23:16:54.116Z,2.20
2022-08-26T23:19:23.894Z,2.08
2022-08-26T23:21:52.818Z,2.10
2022-08-26T23:24:21.324Z,2.30
2022-08-26T23:26:49.749Z,2.70
2022-08-26T23:29:19.544Z,3.63
2022-08-26T23:31:48.087Z,2.78
2022-08-26T23:34:33.997Z,3.25
2022-08-26T23:37:06.247Z,3.33
2022-08-26T23:39:36.328Z,3.35
2022-08-26T23:42:06.463Z,4.00
2022-08-26T23:44:36.178Z,3.20
2022-08-26T23:47:04.988Z,3.70
2022-08-26T23:49:34.089Z,3.30
2022-08-26T23:52:20.428Z,4.20
2022-08-26T23:54:48.863Z,4.10
2022-08-26T23:57:18.242Z,4.32
2022-08-26T23:59:48.500Z,4.40
